Keswick, Virginia
Current Conditions -  °F | °C
As of 2:53 AM on Saturday 29 Nov 2014 (Local Time) from KCHO Reporting Station
Few Clouds Few Clouds  
Wind Chill: 28°   Ceiling: Unl
Heat Index: 28°   Visibility: 10mi
Dew Point: 20°   Wind: 3mph
Humidity: 72%   Direction: 350°N
Pressure: 30.27"   Gusts: NA
Location:  38.05°N, 78.33°W
Report Text: KCHO 290753Z AUTO 35003KT 10SM FEW120 M02/M07 A3027 RMK AO2 SLP253 T10221067
Loading
Personal Weather Stations






























Interactive Weather Map New forecast layout! Learn more

10-Day Weather Forecast

Advertisements
Track Severe Weather on mobile